Terminal Aerodrome Forecast
Issued by NWS Chicago, IL

Home | Current Version | Previous Version | Graphics & Text | Print | Product List | Glossary On
Versions: 1 2 3 4 5 6 7 8 9 10 11 12 13 14 15 16 17 18 19 20 21 22 23 24 25 26 27 28 29 30 31 32
966
FTUS43 KLOT 201127
TAFRFD
TAF
KRFD 201127Z 2012/2112 08006KT 1 1/2SM -DZ BR OVC003
      TEMPO 2013/2016 3/4SM BR OVC002
     FM201900 11006KT 4SM BR OVC004
     FM210200 12006KT 1SM -DZ BR VCSH OVC003=

USA.gov is the U.S. government's official web portal to all federal, state and local government web resources and services.